createdAt,value
2023-02-13T00:00:19.114Z,7.05
2023-02-13T00:02:46.385Z,8.88
2023-02-13T00:05:13.620Z,9.25
2023-02-13T00:07:40.785Z,7.22
2023-02-13T00:10:09.198Z,11.15
2023-02-13T00:12:36.453Z,6.93
2023-02-13T00:15:04.397Z,4.63
2023-02-13T00:17:32.390Z,5.15
2023-02-13T00:19:59.454Z,7.55
2023-02-13T00:22:26.930Z,8.55
2023-02-13T00:24:54.032Z,7.85
2023-02-13T00:27:21.351Z,6.85
2023-02-13T00:29:48.470Z,7.57
2023-02-13T00:32:15.594Z,5.47
2023-02-13T00:34:44.307Z,5.88
2023-02-13T00:37:11.474Z,7.95
2023-02-13T00:39:38.581Z,6.60
2023-02-13T00:42:06.530Z,5.15
2023-02-13T00:44:33.674Z,8.10
2023-02-13T00:47:01.738Z,5.50
2023-02-13T00:49:29.168Z,6.70
2023-02-13T00:51:56.265Z,7.72
2023-02-13T00:54:23.436Z,7.65
2023-02-13T00:56:50.675Z,8.55
2023-02-13T00:59:18.182Z,7.45
2023-02-13T01:01:45.569Z,8.93
2023-02-13T01:04:12.714Z,10.20
2023-02-13T01:06:39.870Z,9.35
2023-02-13T01:09:07.067Z,9.52
2023-02-13T01:11:36.426Z,9.07
2023-02-13T01:14:04.555Z,7.50
2023-02-13T01:16:31.582Z,13.48
2023-02-13T01:18:58.764Z,6.80
2023-02-13T01:21:26.005Z,8.10
2023-02-13T01:23:53.757Z,6.80
2023-02-13T01:26:23.343Z,5.68
2023-02-13T01:28:58.267Z,7.55
2023-02-13T01:31:26.377Z,7.65
2023-02-13T01:33:55.931Z,9.55
2023-02-13T01:36:23.349Z,12.35
2023-02-13T01:38:53.864Z,5.75
2023-02-13T01:41:21.530Z,10.05
2023-02-13T01:43:53.653Z,6.43
2023-02-13T01:46:37.758Z,6.00
2023-02-13T01:49:18.724Z,3.88
2023-02-13T01:51:49.672Z,7.03
2023-02-13T01:54:23.841Z,7.20
2023-02-13T01:56:55.565Z,6.30
2023-02-13T01:59:32.683Z,8.43
2023-02-13T02:02:01.429Z,8.90
2023-02-13T02:04:34.018Z,7.90
2023-02-13T02:07:11.739Z,9.15
2023-02-13T02:09:41.127Z,10.45
2023-02-13T02:12:26.527Z,8.55
2023-02-13T02:14:56.182Z,8.00
2023-02-13T02:17:26.209Z,6.82
2023-02-13T02:20:04.942Z,6.30
2023-02-13T02:22:52.000Z,8.20
2023-02-13T02:25:39.032Z,8.25
2023-02-13T02:28:31.871Z,8.88
2023-02-13T02:31:26.936Z,7.15
2023-02-13T02:33:57.629Z,7.30
2023-02-13T02:37:05.565Z,8.93
2023-02-13T02:39:54.330Z,6.88
2023-02-13T02:42:54.370Z,12.07
2023-02-13T02:45:26.039Z,8.35
2023-02-13T02:48:21.873Z,7.47
2023-02-13T02:51:12.392Z,4.65
2023-02-13T02:53:48.103Z,9.65
2023-02-13T02:56:31.330Z,8.25
2023-02-13T02:59:25.463Z,8.32
2023-02-13T03:02:14.935Z,4.38
2023-02-13T03:05:07.076Z,7.03
2023-02-13T03:07:34.343Z,8.93
2023-02-13T03:10:25.351Z,8.27
2023-02-13T03:13:23.585Z,9.38
2023-02-13T03:16:12.617Z,7.43
2023-02-13T03:19:04.104Z,10.15
2023-02-13T03:22:16.273Z,7.93
2023-02-13T03:24:46.818Z,7.68
2023-02-13T03:27:41.182Z,8.00
2023-02-13T03:30:36.810Z,6.88
2023-02-13T03:33:12.571Z,7.40
2023-02-13T03:36:07.169Z,9.88
2023-02-13T03:38:57.417Z,7.20
2023-02-13T03:41:31.269Z,7.60
2023-02-13T03:44:17.888Z,7.05
2023-02-13T03:46:48.506Z,7.97
2023-02-13T03:49:42.514Z,7.88
2023-02-13T03:52:31.776Z,8.70
2023-02-13T03:55:25.655Z,6.97
2023-02-13T03:58:17.315Z,8.18
2023-02-13T04:00:50.089Z,7.22
2023-02-13T04:03:21.713Z,8.40
2023-02-13T04:05:54.588Z,7.05
2023-02-13T04:08:21.899Z,9.93
2023-02-13T04:10:59.213Z,9.07
2023-02-13T04:13:34.500Z,9.25
2023-02-13T04:16:16.404Z,9.02
2023-02-13T04:18:44.142Z,10.57
2023-02-13T04:21:11.349Z,10.07
2023-02-13T04:23:38.444Z,11.18
2023-02-13T04:26:13.204Z,9.82
2023-02-13T04:28:40.523Z,9.32
2023-02-13T04:31:07.724Z,7.88
2023-02-13T04:33:34.804Z,10.18
2023-02-13T04:36:02.013Z,8.93
2023-02-13T04:38:29.216Z,11.63
2023-02-13T04:40:56.801Z,12.93
2023-02-13T04:43:25.493Z,12.10
2023-02-13T04:45:52.856Z,24.23
2023-02-13T04:48:20.085Z,12.38
2023-02-13T04:50:48.232Z,11.25
2023-02-13T04:53:15.503Z,12.65
2023-02-13T04:55:42.565Z,10.90
2023-02-13T04:58:09.711Z,11.68
2023-02-13T05:00:37.820Z,13.20
2023-02-13T05:03:07.073Z,13.48
2023-02-13T05:05:34.788Z,13.02
2023-02-13T05:08:02.147Z,12.05
2023-02-13T05:10:29.546Z,12.65
2023-02-13T05:12:56.772Z,12.10
2023-02-13T05:15:24.065Z,10.23
2023-02-13T05:17:51.420Z,12.60
2023-02-13T05:20:19.127Z,11.50
2023-02-13T05:23:06.645Z,10.43
2023-02-13T05:25:34.732Z,13.05
2023-02-13T05:28:02.479Z,8.80
2023-02-13T05:30:29.621Z,8.50
2023-02-13T05:32:57.218Z,11.70
2023-02-13T05:35:24.944Z,13.55
2023-02-13T05:37:52.166Z,16.20
2023-02-13T05:40:19.734Z,13.52
2023-02-13T05:42:47.579Z,12.98
2023-02-13T05:45:16.209Z,12.30
2023-02-13T05:47:43.321Z,16.85
2023-02-13T05:50:10.672Z,22.55
2023-02-13T05:52:37.789Z,15.45
2023-02-13T05:55:05.041Z,14.38
2023-02-13T05:57:34.651Z,15.52
2023-02-13T06:00:01.994Z,13.40
2023-02-13T06:02:32.661Z,13.77
2023-02-13T06:04:59.816Z,13.07
2023-02-13T06:07:27.013Z,13.38
2023-02-13T06:09:54.068Z,12.70
2023-02-13T06:12:21.280Z,14.48
2023-02-13T06:14:48.241Z,17.35
2023-02-13T06:17:15.365Z,24.98
2023-02-13T06:19:42.523Z,23.48
2023-02-13T06:22:09.614Z,32.22
2023-02-13T06:24:36.795Z,38.90
2023-02-13T06:27:03.990Z,30.23
2023-02-13T06:29:33.023Z,21.80
2023-02-13T06:32:00.838Z,23.90
2023-02-13T06:34:28.057Z,22.38
2023-02-13T06:36:55.231Z,14.75
2023-02-13T06:39:22.481Z,15.32
2023-02-13T06:41:49.569Z,16.63
2023-02-13T06:44:16.861Z,18.17
2023-02-13T06:46:44.012Z,12.52
2023-02-13T06:49:11.115Z,10.98
2023-02-13T06:51:38.266Z,15.30
2023-02-13T06:54:05.334Z,15.45
2023-02-13T06:56:33.024Z,16.40
2023-02-13T06:59:00.527Z,14.63
2023-02-13T07:01:27.764Z,12.95
2023-02-13T07:03:54.842Z,16.17
2023-02-13T07:06:22.228Z,12.73
2023-02-13T07:08:51.556Z,13.35
2023-02-13T07:11:20.201Z,17.08
2023-02-13T07:13:47.732Z,25.08
2023-02-13T07:16:15.213Z,17.42
2023-02-13T07:18:42.451Z,14.05
2023-02-13T07:21:09.632Z,12.95
2023-02-13T07:23:37.177Z,17.33
2023-02-13T07:26:04.495Z,14.52
2023-02-13T07:28:32.330Z,13.90
2023-02-13T07:31:05.232Z,13.00
2023-02-13T07:33:34.071Z,9.90
2023-02-13T07:36:03.665Z,11.77
2023-02-13T07:38:34.129Z,12.95
2023-02-13T07:41:02.563Z,14.02
2023-02-13T07:43:30.129Z,10.90
2023-02-13T07:46:02.015Z,14.70
2023-02-13T07:48:29.870Z,16.38
2023-02-13T07:51:01.530Z,12.93
2023-02-13T07:53:29.140Z,13.38
2023-02-13T07:55:56.523Z,12.30
2023-02-13T07:58:23.968Z,12.13
2023-02-13T08:00:52.045Z,12.00
2023-02-13T08:03:19.078Z,16.33
2023-02-13T08:05:49.095Z,15.98
2023-02-13T08:08:17.319Z,12.57
2023-02-13T08:11:04.338Z,15.05
2023-02-13T08:13:32.484Z,14.15
2023-02-13T08:16:00.148Z,10.63
2023-02-13T08:18:27.223Z,11.02
2023-02-13T08:20:54.290Z,11.95
2023-02-13T08:23:21.508Z,11.75
2023-02-13T08:25:49.888Z,10.98
2023-02-13T08:28:17.876Z,10.98
2023-02-13T08:30:45.219Z,13.95
2023-02-13T08:33:12.477Z,10.82
2023-02-13T08:35:39.474Z,13.95
2023-02-13T08:38:06.595Z,16.75
2023-02-13T08:40:34.024Z,9.35
2023-02-13T08:43:02.526Z,11.73
2023-02-13T08:45:30.007Z,11.77
2023-02-13T08:47:58.950Z,12.13
2023-02-13T08:50:26.931Z,12.48
2023-02-13T08:52:54.299Z,13.25
2023-02-13T08:55:21.611Z,10.43
2023-02-13T08:57:48.930Z,11.63
2023-02-13T09:00:16.499Z,10.75
2023-02-13T09:02:43.822Z,11.52
2023-02-13T09:05:10.924Z,11.45
2023-02-13T09:07:38.282Z,11.73
2023-02-13T09:10:06.047Z,12.95
2023-02-13T09:12:33.317Z,11.73
2023-02-13T09:15:00.447Z,11.50
2023-02-13T09:17:27.519Z,9.48
2023-02-13T09:19:54.588Z,11.98
2023-02-13T09:22:21.661Z,9.00
2023-02-13T09:24:49.012Z,8.95
2023-02-13T09:27:16.020Z,12.05
2023-02-13T09:29:43.327Z,10.30
2023-02-13T09:32:10.465Z,11.57
2023-02-13T09:34:37.757Z,13.32
2023-02-13T09:37:04.835Z,11.27
2023-02-13T09:39:31.862Z,12.15
2023-02-13T09:42:00.958Z,13.63
2023-02-13T09:44:42.279Z,11.10
2023-02-13T09:47:34.831Z,9.85
2023-02-13T09:50:24.209Z,9.50
2023-02-13T09:52:54.680Z,11.07
2023-02-13T09:55:27.789Z,8.88
2023-02-13T09:58:16.445Z,9.57
2023-02-13T10:00:50.649Z,9.10
2023-02-13T10:03:29.474Z,9.88
2023-02-13T10:06:00.868Z,8.10
2023-02-13T10:08:55.227Z,8.75
2023-02-13T10:12:02.152Z,9.77
2023-02-13T10:14:37.985Z,10.35
2023-02-13T10:17:12.201Z,8.98
2023-02-13T10:22:28.426Z,10.27
2023-02-13T10:25:04.519Z,9.13
2023-02-13T10:27:36.445Z,11.32
2023-02-13T10:30:26.683Z,8.18
2023-02-13T10:33:18.975Z,8.55
2023-02-13T10:35:50.422Z,8.70
2023-02-13T10:38:20.663Z,7.95
2023-02-13T10:41:03.408Z,10.10
2023-02-13T10:43:39.991Z,9.05
2023-02-13T10:46:16.989Z,8.52
2023-02-13T10:48:58.249Z,8.05
2023-02-13T10:51:38.215Z,10.02
2023-02-13T10:54:06.240Z,7.88
2023-02-13T10:56:34.505Z,10.63
2023-02-13T10:59:14.469Z,8.70
2023-02-13T11:01:53.830Z,7.80
2023-02-13T11:04:21.247Z,8.93
2023-02-13T11:06:58.960Z,9.52
2023-02-13T11:09:27.214Z,9.93
2023-02-13T11:11:54.560Z,9.82
2023-02-13T11:14:24.301Z,8.93
2023-02-13T11:16:53.954Z,11.82
2023-02-13T11:19:23.056Z,15.80
2023-02-13T11:21:55.347Z,10.75
2023-02-13T11:24:25.083Z,11.65
2023-02-13T11:27:14.110Z,12.73
2023-02-13T11:30:00.041Z,13.98
2023-02-13T11:32:30.072Z,15.38
2023-02-13T11:34:57.694Z,12.18
2023-02-13T11:37:27.937Z,15.05
2023-02-13T11:39:57.760Z,14.05
2023-02-13T11:42:27.253Z,13.55
2023-02-13T11:45:00.484Z,10.52
2023-02-13T11:47:39.862Z,11.35
2023-02-13T11:50:19.584Z,11.48
2023-02-13T11:53:13.609Z,10.90
2023-02-13T11:55:42.882Z,10.93
2023-02-13T11:58:11.113Z,11.10
2023-02-13T12:00:40.535Z,10.75
2023-02-13T12:03:29.663Z,12.10
2023-02-13T12:06:01.848Z,12.13
2023-02-13T12:08:30.901Z,12.90
2023-02-13T12:11:00.967Z,12.98
2023-02-13T12:13:33.464Z,13.68
2023-02-13T12:16:11.925Z,13.93
2023-02-13T12:18:46.588Z,10.27
2023-02-13T12:21:18.485Z,13.88
2023-02-13T12:23:52.839Z,12.38
2023-02-13T12:26:20.909Z,12.40
2023-02-13T12:29:07.401Z,12.57
2023-02-13T12:32:01.981Z,11.13
2023-02-13T12:34:52.682Z,12.07
2023-02-13T12:37:47.349Z,13.25
2023-02-13T12:40:24.743Z,12.70
2023-02-13T12:43:12.827Z,12.45
2023-02-13T12:45:49.804Z,13.38
2023-02-13T12:48:26.610Z,11.23
2023-02-13T12:51:17.009Z,11.10
2023-02-13T12:53:51.008Z,10.02
2023-02-13T12:56:45.748Z,12.02
2023-02-13T12:59:21.475Z,11.00
2023-02-13T13:02:24.687Z,13.52
2023-02-13T13:05:20.254Z,10.98
2023-02-13T13:08:13.394Z,13.68
2023-02-13T13:10:54.382Z,15.57
2023-02-13T13:13:42.483Z,13.55
2023-02-13T13:16:23.260Z,14.27
2023-02-13T13:19:22.674Z,12.10
2023-02-13T13:22:05.926Z,13.50
2023-02-13T13:24:45.466Z,11.90
2023-02-13T13:27:21.158Z,12.90
2023-02-13T13:29:56.259Z,11.25
2023-02-13T13:32:24.309Z,13.85
2023-02-13T13:34:52.550Z,12.95
2023-02-13T13:38:02.841Z,12.60
2023-02-13T13:40:49.982Z,11.85
2023-02-13T13:43:18.140Z,11.57
2023-02-13T13:46:09.096Z,14.20
2023-02-13T13:49:00.143Z,12.57
2023-02-13T13:51:27.596Z,12.27
2023-02-13T13:54:14.640Z,13.77
2023-02-13T13:57:04.613Z,15.05
2023-02-13T13:59:38.537Z,12.38
2023-02-13T14:02:21.364Z,15.90
2023-02-13T14:05:25.593Z,14.55
2023-02-13T14:08:04.284Z,12.35
2023-02-13T14:10:51.279Z,15.30
2023-02-13T14:13:37.027Z,11.75
2023-02-13T14:16:06.196Z,12.95
2023-02-13T14:18:34.626Z,12.55
2023-02-13T14:21:04.055Z,14.27
2023-02-13T14:23:50.768Z,13.30
2023-02-13T14:26:18.040Z,13.20
2023-02-13T14:28:52.624Z,16.30
2023-02-13T14:34:09.550Z,13.80
2023-02-13T14:36:40.480Z,13.82
2023-02-13T14:39:25.947Z,15.82
2023-02-13T14:41:56.180Z,14.20
2023-02-13T14:44:26.929Z,15.05
2023-02-13T14:46:55.748Z,14.25
2023-02-13T14:49:29.310Z,14.13
2023-02-13T14:52:01.328Z,16.90
2023-02-13T14:54:34.987Z,13.55
2023-02-13T14:57:20.501Z,13.07
2023-02-13T14:59:51.589Z,14.48
2023-02-13T15:02:23.873Z,12.30
2023-02-13T15:04:58.687Z,15.98
2023-02-13T15:07:30.332Z,15.45
2023-02-13T15:10:03.090Z,15.20
2023-02-13T15:12:31.856Z,16.02
2023-02-13T15:15:01.733Z,13.32
2023-02-13T15:17:38.260Z,12.43
2023-02-13T15:20:20.003Z,12.18
2023-02-13T15:22:47.809Z,12.63
2023-02-13T15:25:34.882Z,17.50
2023-02-13T15:28:04.510Z,15.73
2023-02-13T15:30:36.773Z,16.85
2023-02-13T15:33:16.441Z,15.57
2023-02-13T15:35:43.620Z,17.05
2023-02-13T15:38:31.654Z,16.67
2023-02-13T15:41:06.165Z,17.15
2023-02-13T15:43:39.308Z,16.63
2023-02-13T15:46:19.047Z,17.10
2023-02-13T15:48:47.217Z,17.95
2023-02-13T15:51:24.586Z,15.93
2023-02-13T15:53:55.264Z,40.83
2023-02-13T15:56:23.526Z,15.32
2023-02-13T15:58:52.619Z,19.10
2023-02-13T16:01:19.949Z,16.23
2023-02-13T16:03:51.026Z,12.32
2023-02-13T16:06:21.177Z,13.90
2023-02-13T16:09:04.544Z,11.05
2023-02-13T16:11:41.521Z,13.60
2023-02-13T16:14:18.886Z,14.48
2023-02-13T16:17:05.611Z,11.27
2023-02-13T16:19:35.913Z,12.52
2023-02-13T16:22:43.066Z,15.88
2023-02-13T16:25:14.228Z,16.65
2023-02-13T16:27:44.410Z,16.88
2023-02-13T16:30:33.561Z,16.23
2023-02-13T16:33:17.084Z,13.27
2023-02-13T16:35:48.824Z,15.75
2023-02-13T16:38:43.108Z,17.80
2023-02-13T16:41:26.591Z,14.07
2023-02-13T16:43:58.933Z,15.82
2023-02-13T16:46:27.337Z,14.27
2023-02-13T16:48:58.439Z,15.02
2023-02-13T16:51:34.585Z,16.00
2023-02-13T16:54:18.019Z,18.70
2023-02-13T16:56:50.653Z,17.90
2023-02-13T16:59:17.879Z,15.05
2023-02-13T17:01:45.184Z,14.82
2023-02-13T17:04:23.344Z,16.45
2023-02-13T17:06:56.004Z,18.65
2023-02-13T17:09:24.247Z,18.02
2023-02-13T17:11:53.345Z,27.67
2023-02-13T17:14:21.271Z,31.45
2023-02-13T17:16:48.983Z,35.13
2023-02-13T17:19:16.169Z,43.88
2023-02-13T17:21:44.124Z,47.45
2023-02-13T17:24:18.457Z,41.42
2023-02-13T17:26:45.769Z,38.17
2023-02-13T17:29:13.498Z,32.83
2023-02-13T17:31:40.769Z,33.67
2023-02-13T17:34:08.147Z,37.42
2023-02-13T17:36:35.223Z,33.10
2023-02-13T17:39:02.722Z,27.00
2023-02-13T17:41:30.192Z,33.20
2023-02-13T17:43:57.650Z,33.15
2023-02-13T17:46:33.848Z,27.83
2023-02-13T17:49:01.108Z,29.38
2023-02-13T17:51:28.619Z,28.60
2023-02-13T17:53:56.675Z,31.23
2023-02-13T17:56:24.119Z,28.52
2023-02-13T17:58:51.277Z,28.33
2023-02-13T18:01:18.549Z,24.15
2023-02-13T18:03:46.016Z,29.80
2023-02-13T18:06:14.614Z,31.60
2023-02-13T18:08:42.218Z,23.90
2023-02-13T18:11:12.125Z,21.27
2023-02-13T18:13:43.993Z,22.10
2023-02-13T18:16:11.763Z,24.27
2023-02-13T18:18:38.892Z,27.02
2023-02-13T18:21:06.064Z,24.10
2023-02-13T18:23:33.230Z,25.77
2023-02-13T18:26:05.898Z,23.10
2023-02-13T18:28:33.475Z,21.25
2023-02-13T18:31:00.996Z,20.35
2023-02-13T18:33:28.655Z,26.17
2023-02-13T18:36:00.911Z,24.55
2023-02-13T18:38:29.064Z,26.02
2023-02-13T18:40:56.667Z,33.40
2023-02-13T18:43:23.908Z,24.52
2023-02-13T18:45:51.137Z,23.42
2023-02-13T18:48:18.515Z,30.13
2023-02-13T18:50:46.320Z,33.13
2023-02-13T18:53:13.663Z,31.75
2023-02-13T18:55:42.466Z,31.45
2023-02-13T18:58:09.727Z,29.20
2023-02-13T19:00:37.101Z,24.33
2023-02-13T19:03:04.381Z,24.35
2023-02-13T19:05:31.819Z,22.80
2023-02-13T19:08:00.682Z,22.20
2023-02-13T19:10:28.652Z,20.10
2023-02-13T19:12:55.960Z,24.45
2023-02-13T19:15:23.192Z,22.98
2023-02-13T19:17:50.256Z,24.30
2023-02-13T19:20:17.730Z,27.75
2023-02-13T19:22:44.812Z,25.23
2023-02-13T19:25:12.091Z,22.58
2023-02-13T19:27:39.268Z,32.20
2023-02-13T19:30:09.644Z,30.17
2023-02-13T19:32:37.252Z,21.27
2023-02-13T19:35:04.916Z,24.50
2023-02-13T19:37:43.118Z,22.70
2023-02-13T19:40:12.812Z,28.38
2023-02-13T19:42:40.334Z,20.88
2023-02-13T19:45:07.815Z,18.55
2023-02-13T19:47:34.901Z,22.55
2023-02-13T19:50:02.185Z,22.90
2023-02-13T19:52:29.340Z,24.63
2023-02-13T19:54:56.682Z,24.13
2023-02-13T19:57:23.754Z,26.13
2023-02-13T19:59:50.853Z,25.58
2023-02-13T20:02:19.015Z,23.23
2023-02-13T20:04:46.301Z,20.13
2023-02-13T20:07:14.538Z,17.80
2023-02-13T20:09:41.841Z,22.13
2023-02-13T20:12:08.892Z,28.55
2023-02-13T20:14:36.028Z,27.48
2023-02-13T20:17:03.514Z,26.08
2023-02-13T20:19:30.792Z,21.98
2023-02-13T20:21:58.109Z,22.45
2023-02-13T20:24:25.109Z,18.65
2023-02-13T20:26:52.253Z,20.67
2023-02-13T20:29:19.475Z,20.70
2023-02-13T20:31:46.967Z,17.73
2023-02-13T20:34:14.144Z,15.48
2023-02-13T20:36:41.392Z,15.25
2023-02-13T20:39:09.043Z,14.55
2023-02-13T20:41:37.956Z,18.55
2023-02-13T20:44:08.366Z,15.88
2023-02-13T20:46:38.255Z,19.85
2023-02-13T20:49:06.858Z,18.73
2023-02-13T20:51:34.410Z,18.88
2023-02-13T20:54:01.739Z,22.83
2023-02-13T20:56:29.487Z,22.70
2023-02-13T20:58:59.163Z,25.30
2023-02-13T21:01:28.452Z,27.67
2023-02-13T21:03:56.615Z,24.25
2023-02-13T21:06:28.191Z,24.02
2023-02-13T21:08:55.697Z,24.27
2023-02-13T21:11:23.824Z,26.80
2023-02-13T21:13:51.720Z,25.30
2023-02-13T21:16:21.650Z,29.40
2023-02-13T21:18:51.379Z,29.75
2023-02-13T21:21:19.179Z,34.88
2023-02-13T21:23:46.304Z,34.00
2023-02-13T21:26:16.515Z,44.00
2023-02-13T21:28:47.018Z,46.95
2023-02-13T21:31:23.901Z,50.80
2023-02-13T21:33:51.926Z,41.17
2023-02-13T21:36:19.531Z,37.92
2023-02-13T21:38:46.749Z,30.55
2023-02-13T21:41:17.060Z,28.45
2023-02-13T21:43:48.298Z,25.15
2023-02-13T21:46:19.989Z,26.35
2023-02-13T21:48:47.952Z,22.10
2023-02-13T21:51:18.873Z,23.85
2023-02-13T21:53:47.412Z,21.10
2023-02-13T21:56:22.045Z,21.63
2023-02-13T21:58:50.158Z,20.88
2023-02-13T22:01:26.489Z,24.60
2023-02-13T22:04:01.130Z,26.05
2023-02-13T22:06:30.865Z,27.17
2023-02-13T22:09:01.368Z,21.27
2023-02-13T22:11:29.158Z,23.05
2023-02-13T22:14:01.831Z,20.08
2023-02-13T22:16:31.175Z,20.17
2023-02-13T22:18:58.629Z,20.20
2023-02-13T22:21:27.710Z,17.48
2023-02-13T22:23:54.875Z,15.30
2023-02-13T22:26:28.372Z,18.85
2023-02-13T22:28:59.173Z,18.75
2023-02-13T22:31:26.400Z,18.60
2023-02-13T22:34:04.312Z,17.05
2023-02-13T22:36:35.085Z,16.73
2023-02-13T22:39:02.513Z,20.73
2023-02-13T22:41:29.869Z,19.50
2023-02-13T22:43:57.757Z,20.30
2023-02-13T22:46:27.701Z,21.55
2023-02-13T22:48:55.551Z,17.52
2023-02-13T22:51:26.216Z,20.40
2023-02-13T22:53:54.775Z,16.27
2023-02-13T22:56:22.770Z,17.40
2023-02-13T22:58:49.916Z,21.00
2023-02-13T23:01:20.259Z,18.67
2023-02-13T23:03:47.736Z,21.45
2023-02-13T23:06:16.011Z,21.65
2023-02-13T23:08:43.768Z,26.92
2023-02-13T23:11:34.776Z,20.13
2023-02-13T23:14:02.731Z,22.65
2023-02-13T23:16:50.092Z,17.52
2023-02-13T23:19:17.265Z,21.23
2023-02-13T23:21:44.400Z,23.73
2023-02-13T23:24:11.573Z,22.70
2023-02-13T23:26:38.808Z,23.25
2023-02-13T23:29:05.889Z,20.77
2023-02-13T23:31:33.212Z,23.60
2023-02-13T23:34:00.292Z,24.73
2023-02-13T23:36:27.442Z,23.35
2023-02-13T23:38:54.629Z,23.40
2023-02-13T23:41:21.812Z,22.85
2023-02-13T23:43:49.029Z,24.00
2023-02-13T23:46:16.185Z,22.33
2023-02-13T23:48:43.518Z,23.90
2023-02-13T23:51:10.671Z,21.73
2023-02-13T23:53:38.145Z,22.73
2023-02-13T23:56:05.741Z,22.13
2023-02-13T23:58:33.032Z,19.60
